Time;durP1;ratioP1;P1;durP2;ratioP2;P2;SDS_P1;SDS_P2;PMS_P1;PMS_P2;Temp;Humidity;BMP_temperature;BMP_pressure;BME280_temperature;BME280_humidity;BME280_pressure;Samples;Min_cycle;Max_cycle;Signal;HPM_P1;HPM_P2
2022/03/21 00:02:02;;;;;;;;;;;;;;;;;;5018835;28;20100;-75
2022/03/21 00:04:29;;;;;;;;;;;;;;;;;;5015547;28;20053;-75
2022/03/21 00:06:57;;;;;;;;;;;;;;;;;;5036307;28;19998;-81
2022/03/21 00:09:25;;;;;;;;;;;;;;;;;;5019527;28;20044;-81
2022/03/21 00:11:53;;;;;;;;;;;;;;;;;;4998822;28;20022;-75
2022/03/21 00:14:24;;;;;;;;;;;;;;;;;;4999585;28;19999;-81
2022/03/21 00:16:51;;;;;;;;;;;;;;;;;;4998636;28;20025;-75
2022/03/21 00:19:20;;;;;;;;;;;;;;;;;;5014928;28;20435;-75
2022/03/21 00:21:48;;;;;;;;;;;;;;;;;;4998628;28;20002;-81
2022/03/21 00:24:15;;;;;;;;;;;;;;;;;;5015346;28;20010;-81
2022/03/21 00:26:43;;;;;;;;;;;;;;;;;;5016063;28;20450;-75
2022/03/21 00:29:24;;;;;;;;;;;;;;;;;;5014539;28;20018;-75
2022/03/21 00:31:51;;;;;;;;;;;;;;;;;;4998246;28;20017;-80
2022/03/21 00:34:22;;;;;;;;;;;;;;;;;;5014656;28;20006;-75
2022/03/21 00:36:49;;;;;;;;;;;;;;;;;;5015704;28;19995;-75
2022/03/21 00:39:18;;;;;;;;;;;;;;;;;;4982537;28;20391;-81
2022/03/21 00:41:46;;;;;;;;;;;;;;;;;;5015833;28;19998;-75
2022/03/21 00:44:13;;;;;;;;;;;;;;;;;;5015771;28;20010;-75
2022/03/21 00:46:42;;;;;;;;;;;;;;;;;;5015874;28;20028;-75
2022/03/21 00:49:12;;;;;;;;;;;;;;;;;;5015745;28;19995;-75
2022/03/21 00:51:40;;;;;;;;;;;;;;;;;;5015528;28;20014;-75
2022/03/21 00:54:08;;;;;;;;;;;;;;;;;;4998073;28;19994;-74
2022/03/21 00:56:35;;;;;;;;;;;;;;;;;;5015520;28;20108;-75
2022/03/21 00:59:04;;;;;;;;;;;;;;;;;;4997624;28;20002;-76
2022/03/21 01:01:32;;;;;;;;;;;;;;;;;;4997888;28;19994;-75
2022/03/21 01:03:59;;;;;;;;;;;;;;;;;;5015310;28;20022;-75
2022/03/21 01:06:29;;;;;;;;;;;;;;;;;;5015785;28;20048;-75
2022/03/21 01:08:57;;;;;;;;;;;;;;;;;;5015275;28;19998;-80
2022/03/21 01:11:25;;;;;;;;;;;;;;;;;;5015557;28;20042;-81
2022/03/21 01:13:52;;;;;;;;;;;;;;;;;;5036334;28;20028;-76
2022/03/21 01:16:20;;;;;;;;;;;;;;;;;;5030625;28;20001;-75
2022/03/21 01:18:47;;;;;;;;;;;;;;;;;;5037080;28;19998;-75
2022/03/21 01:21:16;;;;;;;;;;;;;;;;;;5020890;28;20111;-75
2022/03/21 01:23:44;;;;;;;;;;;;;;;;;;5036959;28;20009;-75
2022/03/21 01:26:11;;;;;;;;;;;;;;;;;;5055026;28;20009;-76
2022/03/21 01:28:41;;;;;;;;;;;;;;;;;;5038035;28;20100;-75
2022/03/21 01:31:08;;;;;;;;;;;;;;;;;;5037222;28;20017;-76
2022/03/21 01:33:37;;;;;;;;;;;;;;;;;;5037363;28;20449;-81
2022/03/21 01:36:05;;;;;;;;;;;;;;;;;;5053965;28;20080;-81
2022/03/21 01:38:33;;;;;;;;;;;;;;;;;;5054697;28;20024;-75
2022/03/21 01:41:01;;;;;;;;;;;;;;;;;;5036940;28;20383;-81
2022/03/21 01:43:28;;;;;;;;;;;;;;;;;;5055042;28;20000;-75
2022/03/21 01:45:58;;;;;;;;;;;;;;;;;;5054695;28;20092;-77
2022/03/21 01:48:28;;;;;;;;;;;;;;;;;;5036536;28;20393;-77
2022/03/21 01:50:56;;;;;;;;;;;;;;;;;;5054167;28;20136;-75
2022/03/21 01:56:11;;;;;;;;;;;;;;;;;;5036219;28;20096;-75
2022/03/21 01:58:38;;;;;;;;;;;;;;;;;;5054430;28;19993;-75
2022/03/21 02:01:06;;;;;;;;;;;;;;;;;;5036638;28;20449;-75
2022/03/21 02:03:34;;;;;;;;;;;;;;;;;;5036256;28;20063;-75
2022/03/21 02:06:03;;;;;;;;;;;;;;;;;;5054128;28;20468;-76
2022/03/21 02:08:30;;;;;;;;;;;;;;;;;;5036685;28;20014;-76
2022/03/21 02:10:59;;;;;;;;;;;;;;;;;;5053879;28;20099;-75
2022/03/21 02:13:27;;;;;;;;;;;;;;;;;;5033433;28;20028;-75
2022/03/21 02:15:55;;;;;;;;;;;;;;;;;;5054091;28;20017;-76
2022/03/21 02:18:22;;;;;;;;;;;;;;;;;;5053937;28;19994;-80
2022/03/21 02:20:50;;;;;;;;;;;;;;;;;;5035781;28;20024;-80
2022/03/21 02:23:18;;;;;;;;;;;;;;;;;;5053699;28;20044;-75
2022/03/21 02:25:47;;;;;;;;;;;;;;;;;;5019053;28;20021;-75
2022/03/21 02:28:14;;;;;;;;;;;;;;;;;;5035690;28;20001;-76
2022/03/21 02:30:41;;;;;;;;;;;;;;;;;;5035863;28;20383;-80
2022/03/21 02:33:11;;;;;;;;;;;;;;;;;;5035836;28;20008;-75
2022/03/21 02:35:39;;;;;;;;;;;;;;;;;;5053267;28;20000;-75
2022/03/21 02:38:06;;;;;;;;;;;;;;;;;;5019476;28;20027;-75
2022/03/21 02:40:34;;;;;;;;;;;;;;;;;;5035688;28;20009;-80
2022/03/21 02:43:01;;;;;;;;;;;;;;;;;;5035836;28;20002;-75
2022/03/21 02:45:29;;;;;;;;;;;;;;;;;;5035018;28;20480;-75
2022/03/21 02:47:56;;;;;;;;;;;;;;;;;;5053416;28;19997;-80
2022/03/21 02:50:23;;;;;;;;;;;;;;;;;;5053555;28;20000;-81
2022/03/21 02:52:52;;;;;;;;;;;;;;;;;;5035663;28;19994;-76
2022/03/21 02:55:20;;;;;;;;;;;;;;;;;;5053233;28;19999;-81
2022/03/21 02:57:47;;;;;;;;;;;;;;;;;;5052827;28;19998;-76
2022/03/21 03:00:15;;;;;;;;;;;;;;;;;;5037219;28;20002;-76
2022/03/21 03:02:42;;;;;;;;;;;;;;;;;;5015909;28;20018;-75
2022/03/21 03:05:10;;;;;;;;;;;;;;;;;;5033479;28;20040;-75
2022/03/21 03:07:37;;;;;;;;;;;;;;;;;;5033279;28;20000;-76
2022/03/21 03:10:08;;;;;;;;;;;;;;;;;;5016176;28;20043;-76
2022/03/21 03:12:38;;;;;;;;;;;;;;;;;;5015171;28;20032;-75
2022/03/21 03:15:05;;;;;;;;;;;;;;;;;;5015820;28;19998;-76
2022/03/21 03:17:33;;;;;;;;;;;;;;;;;;5033041;28;19994;-76
2022/03/21 03:20:00;;;;;;;;;;;;;;;;;;5033133;28;19994;-75
2022/03/21 03:22:27;;;;;;;;;;;;;;;;;;5015472;28;19994;-75
2022/03/21 03:24:55;;;;;;;;;;;;;;;;;;5032725;28;20018;-76
2022/03/21 03:27:22;;;;;;;;;;;;;;;;;;5054664;28;19997;-80
2022/03/21 03:29:50;;;;;;;;;;;;;;;;;;5054632;28;20494;-75
2022/03/21 03:32:17;;;;;;;;;;;;;;;;;;5055277;28;20360;-76
2022/03/21 03:34:45;;;;;;;;;;;;;;;;;;5073018;28;20062;-75
2022/03/21 03:37:16;;;;;;;;;;;;;;;;;;5072760;28;20117;-80
2022/03/21 03:39:44;;;;;;;;;;;;;;;;;;5054834;28;19993;-75
2022/03/21 03:42:11;;;;;;;;;;;;;;;;;;5055187;28;19993;-75
2022/03/21 03:44:39;;;;;;;;;;;;;;;;;;5072797;28;19992;-75
2022/03/21 03:47:06;;;;;;;;;;;;;;;;;;5072854;28;19993;-80
2022/03/21 03:49:34;;;;;;;;;;;;;;;;;;5072873;28;19994;-75
2022/03/21 03:52:04;;;;;;;;;;;;;;;;;;5055462;28;20054;-76
2022/03/21 03:54:32;;;;;;;;;;;;;;;;;;5055370;28;20001;-80
2022/03/21 03:57:01;;;;;;;;;;;;;;;;;;5072714;28;20001;-80
2022/03/21 03:59:32;;;;;;;;;;;;;;;;;;5073169;28;19993;-81
2022/03/21 04:02:02;;;;;;;;;;;;;;;;;;5059242;28;19997;-75
2022/03/21 04:04:31;;;;;;;;;;;;;;;;;;5058474;28;20514;-75
2022/03/21 04:06:58;;;;;;;;;;;;;;;;;;5076221;28;20099;-75
2022/03/21 04:09:26;;;;;;;;;;;;;;;;;;5042245;28;20054;-79
2022/03/21 04:11:53;;;;;;;;;;;;;;;;;;5075798;28;20364;-74
2022/03/21 04:14:21;;;;;;;;;;;;;;;;;;5076161;28;19993;-75
2022/03/21 04:16:49;;;;;;;;;;;;;;;;;;5076063;28;19993;-75
2022/03/21 04:19:17;;;;;;;;;;;;;;;;;;5075926;28;20346;-75
2022/03/21 04:21:44;;;;;;;;;;;;;;;;;;5076059;28;19994;-75
2022/03/21 04:24:14;;;;;;;;;;;;;;;;;;5075942;28;19997;-75
2022/03/21 04:26:41;;;;;;;;;;;;;;;;;;5075853;28;20012;-79
2022/03/21 04:29:10;;;;;;;;;;;;;;;;;;5075989;28;20364;-79
2022/03/21 04:31:37;;;;;;;;;;;;;;;;;;5075713;28;20014;-75
2022/03/21 04:34:05;;;;;;;;;;;;;;;;;;5075900;28;20059;-75
2022/03/21 04:36:32;;;;;;;;;;;;;;;;;;5057821;28;19993;-80
2022/03/21 04:39:00;;;;;;;;;;;;;;;;;;5057932;28;20032;-75
2022/03/21 04:41:30;;;;;;;;;;;;;;;;;;5059687;28;20001;-75
2022/03/21 04:43:57;;;;;;;;;;;;;;;;;;5038016;28;19994;-75
2022/03/21 04:46:25;;;;;;;;;;;;;;;;;;5055454;28;20024;-75
2022/03/21 04:48:55;;;;;;;;;;;;;;;;;;5037360;28;20411;-75
2022/03/21 04:51:23;;;;;;;;;;;;;;;;;;5021483;28;20093;-79
2022/03/21 04:53:50;;;;;;;;;;;;;;;;;;5021091;28;20024;-75
2022/03/21 04:56:18;;;;;;;;;;;;;;;;;;5055139;28;19994;-75
2022/03/21 04:58:46;;;;;;;;;;;;;;;;;;5055505;28;20003;-75
2022/03/21 05:01:13;;;;;;;;;;;;;;;;;;5054898;28;20021;-75
2022/03/21 05:03:44;;;;;;;;;;;;;;;;;;5055167;28;19997;-75
2022/03/21 05:06:12;;;;;;;;;;;;;;;;;;5037238;28;20009;-75
2022/03/21 05:08:41;;;;;;;;;;;;;;;;;;5055224;28;20477;-79
2022/03/21 05:11:13;;;;;;;;;;;;;;;;;;5055255;28;20039;-79
2022/03/21 05:13:40;;;;;;;;;;;;;;;;;;5036847;28;20038;-79
2022/03/21 05:16:08;;;;;;;;;;;;;;;;;;5054452;28;20388;-74
2022/03/21 05:18:35;;;;;;;;;;;;;;;;;;5055081;28;19994;-75
2022/03/21 05:21:03;;;;;;;;;;;;;;;;;;5055125;28;20088;-75
2022/03/21 05:31:51;;;;;;;;;;;;;;;;;;5036879;28;20017;-74
2022/03/21 05:37:05;;;;;;;;;;;;;;;;;;5036140;28;20456;-75
2022/03/21 05:39:33;;;;;;;;;;;;;;;;;;5036826;28;19997;-75
2022/03/21 05:42:04;;;;;;;;;;;;;;;;;;5054399;28;19994;-75
2022/03/21 05:44:31;;;;;;;;;;;;;;;;;;5054499;28;19994;-74
2022/03/21 05:46:58;;;;;;;;;;;;;;;;;;5053508;28;20009;-75
2022/03/21 05:49:26;;;;;;;;;;;;;;;;;;5041245;28;20385;-75
2022/03/21 05:51:54;;;;;;;;;;;;;;;;;;5049551;28;20013;-75
2022/03/21 05:54:24;;;;;;;;;;;;;;;;;;5035285;28;19994;-76
2022/03/21 05:56:51;;;;;;;;;;;;;;;;;;5053459;28;19997;-77
2022/03/21 06:02:08;;;;;;;;;;;;;;;;;;5050698;28;20013;-78
2022/03/21 06:04:36;;;;;;;;;;;;;;;;;;5051482;28;19997;-76
2022/03/21 06:07:06;;;;;;;;;;;;;;;;;;5048836;28;20014;-76
2022/03/21 06:09:40;;;;;;;;;;;;;;;;;;5033150;28;20062;-77
2022/03/21 06:12:07;;;;;;;;;;;;;;;;;;5034556;28;20017;-76
2022/03/21 06:14:35;;;;;;;;;;;;;;;;;;5025962;28;20018;-74
2022/03/21 06:17:08;;;;;;;;;;;;;;;;;;5001496;28;20097;-75
2022/03/21 06:19:36;;;;;;;;;;;;;;;;;;5017792;28;20045;-76
2022/03/21 06:22:05;;;;;;;;;;;;;;;;;;5025922;28;20001;-78
2022/03/21 06:24:32;;;;;;;;;;;;;;;;;;5033792;28;19998;-76
2022/03/21 06:27:01;;;;;;;;;;;;;;;;;;5033706;28;20010;-78
2022/03/21 06:29:29;;;;;;;;;;;;;;;;;;5035231;28;20489;-78
2022/03/21 06:31:56;;;;;;;;;;;;;;;;;;5035708;28;20444;-76
2022/03/21 06:34:24;;;;;;;;;;;;;;;;;;5053064;28;20032;-78
2022/03/21 06:36:52;;;;;;;;;;;;;;;;;;5052033;28;20008;-78
2022/03/21 06:39:20;;;;;;;;;;;;;;;;;;5019274;28;20096;-78
2022/03/21 06:41:51;;;;;;;;;;;;;;;;;;5033827;28;20369;-81
2022/03/21 06:44:18;;;;;;;;;;;;;;;;;;5032072;28;20081;-79
2022/03/21 06:46:45;;;;;;;;;;;;;;;;;;5014907;28;20384;-78
2022/03/21 06:49:14;;;;;;;;;;;;;;;;;;5014848;28;20002;-76
2022/03/21 06:51:47;;;;;;;;;;;;;;;;;;5015524;28;20008;-78
2022/03/21 06:54:15;;;;;;;;;;;;;;;;;;5007860;28;20480;-77
2022/03/21 06:56:42;;;;;;;;;;;;;;;;;;5025833;28;20108;-77
2022/03/21 06:59:09;;;;;;;;;;;;;;;;;;5004087;28;20018;-77
2022/03/21 07:01:37;;;;;;;;;;;;;;;;;;5038792;28;20048;-82
2022/03/21 07:04:05;;;;;;;;;;;;;;;;;;5039768;28;20020;-82
2022/03/21 07:06:33;;;;;;;;;;;;;;;;;;5014704;28;20049;-77
2022/03/21 07:09:00;;;;;;;;;;;;;;;;;;5027892;28;20021;-78
2022/03/21 07:11:29;;;;;;;;;;;;;;;;;;5108236;23;20072;-79
2022/03/21 07:13:57;;;;;;;;;;;;;;;;;;5013100;28;20377;-82
2022/03/21 07:16:25;;;;;;;;;;;;;;;;;;5028303;28;20008;-81
2022/03/21 07:18:53;;;;;;;;;;;;;;;;;;5012900;28;20121;-79
2022/03/21 07:21:21;;;;;;;;;;;;;;;;;;5013157;28;20429;-81
2022/03/21 07:23:49;;;;;;;;;;;;;;;;;;5013034;28;20001;-76
2022/03/21 07:26:19;;;;;;;;;;;;;;;;;;5012591;28;20195;-78
2022/03/21 07:28:46;;;;;;;;;;;;;;;;;;5008824;28;20472;-76
2022/03/21 07:31:31;;;;;;;;;;;;;;;;;;5011463;28;20489;-78
2022/03/21 07:34:01;;;;;;;;;;;;;;;;;;5012817;28;20085;-79
2022/03/21 07:36:29;;;;;;;;;;;;;;;;;;5015640;28;20021;-77
2022/03/21 07:39:00;;;;;;;;;;;;;;;;;;4996428;28;20357;-79
2022/03/21 07:41:29;;;;;;;;;;;;;;;;;;4999824;28;20002;-78
2022/03/21 07:43:58;;;;;;;;;;;;;;;;;;5016966;28;20089;-78
2022/03/21 07:49:13;;;;;;;;;;;;;;;;;;4999073;28;20435;-81
2022/03/21 07:51:43;;;;;;;;;;;;;;;;;;4999578;28;20002;-78
2022/03/21 07:54:11;;;;;;;;;;;;;;;;;;5016454;28;20006;-81
2022/03/21 07:56:39;;;;;;;;;;;;;;;;;;4999292;28;20468;-77
2022/03/21 07:59:07;;;;;;;;;;;;;;;;;;4999552;28;20080;-79
2022/03/21 08:01:35;;;;;;;;;;;;;;;;;;5016419;28;19994;-82
2022/03/21 08:04:04;;;;;;;;;;;;;;;;;;4999734;28;20107;-79
2022/03/21 08:06:32;;;;;;;;;;;;;;;;;;4999060;28;20573;-79
2022/03/21 08:09:00;;;;;;;;;;;;;;;;;;5016640;28;20040;-78
2022/03/21 08:11:29;;;;;;;;;;;;;;;;;;5016855;28;20119;-79
2022/03/21 08:13:56;;;;;;;;;;;;;;;;;;5016291;28;19995;-79
2022/03/21 08:16:24;;;;;;;;;;;;;;;;;;5016625;28;20430;-78
2022/03/21 08:18:52;;;;;;;;;;;;;;;;;;4999192;28;20022;-82
2022/03/21 08:21:20;;;;;;;;;;;;;;;;;;5016235;28;20422;-79
2022/03/21 08:23:47;;;;;;;;;;;;;;;;;;5016043;28;20054;-77
2022/03/21 08:26:17;;;;;;;;;;;;;;;;;;4997428;28;20054;-79
2022/03/21 08:28:45;;;;;;;;;;;;;;;;;;4998166;28;19994;-80
2022/03/21 08:31:21;;;;;;;;;;;;;;;;;;4997956;28;20127;-82
2022/03/21 08:33:49;;;;;;;;;;;;;;;;;;5016171;28;20092;-78
2022/03/21 08:36:19;;;;;;;;;;;;;;;;;;5015826;28;20044;-77
2022/03/21 08:38:47;;;;;;;;;;;;;;;;;;5016240;28;20001;-77
2022/03/21 08:41:16;;;;;;;;;;;;;;;;;;4998172;28;20018;-78
2022/03/21 08:43:43;;;;;;;;;;;;;;;;;;5015713;28;20354;-78
2022/03/21 08:46:12;;;;;;;;;;;;;;;;;;5015047;28;19998;-81
2022/03/21 08:51:46;;;;;;;;;;;;;;;;;;5015885;28;20001;-78
2022/03/21 08:54:14;;;;;;;;;;;;;;;;;;4998349;28;20022;-82
2022/03/21 08:56:43;;;;;;;;;;;;;;;;;;5016217;28;19998;-77
2022/03/21 08:59:11;;;;;;;;;;;;;;;;;;5015485;28;20019;-78
2022/03/21 09:01:38;;;;;;;;;;;;;;;;;;5015184;28;20006;-78
2022/03/21 09:04:08;;;;;;;;;;;;;;;;;;5015863;28;20059;-82
2022/03/21 09:06:43;;;;;;;;;;;;;;;;;;5015901;28;20461;-77
2022/03/21 09:09:12;;;;;;;;;;;;;;;;;;5015204;28;20457;-81
2022/03/21 09:11:39;;;;;;;;;;;;;;;;;;5007410;28;20105;-78
2022/03/21 09:14:08;;;;;;;;;;;;;;;;;;4978027;28;20078;-78
2022/03/21 09:16:38;;;;;;;;;;;;;;;;;;4995904;28;19998;-78
2022/03/21 09:19:06;;;;;;;;;;;;;;;;;;4995745;28;20015;-78
2022/03/21 09:21:34;;;;;;;;;;;;;;;;;;4995755;28;20386;-81
2022/03/21 09:24:01;;;;;;;;;;;;;;;;;;4995658;28;20029;-76
2022/03/21 09:26:29;;;;;;;;;;;;;;;;;;4978018;28;20051;-81
2022/03/21 09:29:05;;;;;;;;;;;;;;;;;;4995537;28;20018;-78
2022/03/21 09:31:33;;;;;;;;;;;;;;;;;;4978188;28;19928;-78
2022/03/21 09:34:06;;;;;;;;;;;;;;;;;;4994919;28;20074;-76
2022/03/21 09:36:33;;;;;;;;;;;;;;;;;;4995476;28;19926;-81
2022/03/21 09:39:01;;;;;;;;;;;;;;;;;;4995016;28;20023;-76
2022/03/21 09:41:29;;;;;;;;;;;;;;;;;;4975219;28;20309;-81
2022/03/21 09:43:57;;;;;;;;;;;;;;;;;;4978106;28;20111;-77
2022/03/21 09:46:24;;;;;;;;;;;;;;;;;;4994633;28;19922;-81
2022/03/21 09:48:52;;;;;;;;;;;;;;;;;;4994674;28;20068;-78
2022/03/21 09:51:19;;;;;;;;;;;;;;;;;;4977419;28;19945;-77
2022/03/21 09:53:52;;;;;;;;;;;;;;;;;;4977928;28;20349;-81
2022/03/21 09:56:20;;;;;;;;;;;;;;;;;;4977125;28;20127;-79
2022/03/21 09:58:48;;;;;;;;;;;;;;;;;;4975570;28;20407;-81
2022/03/21 10:01:18;;;;;;;;;;;;;;;;;;4994887;28;19993;-79
2022/03/21 10:03:46;;;;;;;;;;;;;;;;;;4994676;28;20040;-77
2022/03/21 10:06:15;;;;;;;;;;;;;;;;;;4977011;28;20334;-77
2022/03/21 10:08:43;;;;;;;;;;;;;;;;;;4974344;28;25075;-77
2022/03/21 10:11:10;;;;;;;;;;;;;;;;;;4996637;28;20008;-76
2022/03/21 10:13:44;;;;;;;;;;;;;;;;;;5030767;28;20000;-77
2022/03/21 10:16:11;;;;;;;;;;;;;;;;;;5015555;28;20031;-81
2022/03/21 10:18:40;;;;;;;;;;;;;;;;;;5033870;28;20049;-76
2022/03/21 10:21:07;;;;;;;;;;;;;;;;;;5013941;28;19996;-81
2022/03/21 10:23:35;;;;;;;;;;;;;;;;;;5024251;28;25056;-77
2022/03/21 10:26:04;;;;;;;;;;;;;;;;;;5015206;28;20000;-77
2022/03/21 10:28:33;;;;;;;;;;;;;;;;;;4995057;28;20001;-76
2022/03/21 10:31:01;;;;;;;;;;;;;;;;;;5012744;28;27046;-81
2022/03/21 10:33:29;;;;;;;;;;;;;;;;;;5027721;28;25073;-79
2022/03/21 10:35:57;;;;;;;;;;;;;;;;;;5015631;28;19944;-77
2022/03/21 10:38:24;;;;;;;;;;;;;;;;;;5033800;28;20629;-76
2022/03/21 10:41:10;;;;;;;;;;;;;;;;;;5033605;28;20451;-81
2022/03/21 10:43:38;;;;;;;;;;;;;;;;;;5033822;28;20473;-77
2022/03/21 10:46:06;;;;;;;;;;;;;;;;;;5032827;28;20011;-76
2022/03/21 10:48:36;;;;;;;;;;;;;;;;;;5014377;28;20448;-77
2022/03/21 10:51:04;;;;;;;;;;;;;;;;;;5033331;28;19921;-77
2022/03/21 10:53:33;;;;;;;;;;;;;;;;;;5015830;28;20414;-79
2022/03/21 10:56:03;;;;;;;;;;;;;;;;;;5033627;28;20000;-76
2022/03/21 10:58:32;;;;;;;;;;;;;;;;;;5032544;28;20078;-76
2022/03/21 11:01:02;;;;;;;;;;;;;;;;;;5014791;28;20012;-81
2022/03/21 11:03:30;;;;;;;;;;;;;;;;;;5032974;28;20000;-77
2022/03/21 11:05:57;;;;;;;;;;;;;;;;;;5033529;28;19921;-81
2022/03/21 11:08:25;;;;;;;;;;;;;;;;;;5033347;28;20020;-81
2022/03/21 11:10:55;;;;;;;;;;;;;;;;;;5033750;28;19999;-77
2022/03/21 11:13:28;;;;;;;;;;;;;;;;;;5032362;28;19927;-81
2022/03/21 11:15:57;;;;;;;;;;;;;;;;;;5015749;28;20031;-76
2022/03/21 11:18:32;;;;;;;;;;;;;;;;;;5033172;28;19995;-77
2022/03/21 11:20:59;;;;;;;;;;;;;;;;;;5032372;28;20016;-79
2022/03/21 11:23:27;;;;;;;;;;;;;;;;;;5015480;28;20020;-77
2022/03/21 11:25:55;;;;;;;;;;;;;;;;;;5032693;28;20368;-79
2022/03/21 11:28:23;;;;;;;;;;;;;;;;;;5032846;28;20122;-81
2022/03/21 11:30:52;;;;;;;;;;;;;;;;;;5015585;28;19921;-76
2022/03/21 11:33:20;;;;;;;;;;;;;;;;;;5033349;28;19992;-76
2022/03/21 11:35:49;;;;;;;;;;;;;;;;;;5015027;28;19931;-77
2022/03/21 11:38:22;;;;;;;;;;;;;;;;;;5015670;28;20032;-82
2022/03/21 11:40:50;;;;;;;;;;;;;;;;;;5015259;28;20442;-77
2022/03/21 11:43:17;;;;;;;;;;;;;;;;;;5033222;28;20019;-77
2022/03/21 11:45:47;;;;;;;;;;;;;;;;;;5032918;28;20020;-77
2022/03/21 11:48:15;;;;;;;;;;;;;;;;;;4998668;28;20016;-77
2022/03/21 11:50:42;;;;;;;;;;;;;;;;;;5032356;28;20460;-76
2022/03/21 11:53:10;;;;;;;;;;;;;;;;;;5033080;28;19925;-81
2022/03/21 11:55:40;;;;;;;;;;;;;;;;;;5032398;28;20019;-79
2022/03/21 11:58:28;;;;;;;;;;;;;;;;;;5017948;28;19995;-78
2022/03/21 12:00:59;;;;;;;;;;;;;;;;;;5031174;28;19996;-77
2022/03/21 12:03:36;;;;;;;;;;;;;;;;;;5025265;28;20090;-81
2022/03/21 12:06:04;;;;;;;;;;;;;;;;;;5031607;28;19928;-81
2022/03/21 12:08:31;;;;;;;;;;;;;;;;;;5032280;28;20066;-78
2022/03/21 12:10:59;;;;;;;;;;;;;;;;;;5030671;28;19921;-79
2022/03/21 12:13:27;;;;;;;;;;;;;;;;;;5031688;28;20347;-78
2022/03/21 12:15:54;;;;;;;;;;;;;;;;;;5032184;28;20026;-77
2022/03/21 12:18:25;;;;;;;;;;;;;;;;;;5032335;28;19975;-80
2022/03/21 12:20:52;;;;;;;;;;;7.30;99.90;;;;;;5033630;28;19925;-77
2022/03/21 12:23:24;;;;;;;;;;;;;;;;;;5036008;28;19932;-76
2022/03/21 12:25:51;;;;;;;;;;;;;;;;;;5035785;28;19925;-78
2022/03/21 12:28:21;;;;;;;;;;;;;;;;;;5035995;28;19921;-76
2022/03/21 12:30:49;;;;;;;;;;;;;;;;;;5035775;28;20024;-76
2022/03/21 12:33:17;;;;;;;;;;;;;;;;;;5035475;28;20410;-80
2022/03/21 12:35:47;;;;;;;;;;;;;;;;;;5035713;28;20079;-77
2022/03/21 12:38:18;;;;;;;;;;;;;;;;;;5035252;28;19927;-76
2022/03/21 12:40:45;;;;;;;;;;;;;;;;;;5035509;28;19996;-76
2022/03/21 12:43:12;;;;;;;;;;;;;;;;;;5033253;28;20056;-78
2022/03/21 12:45:44;;;;;;;;;;;;;;;;;;5033662;28;19937;-78
2022/03/21 12:48:13;;;;;;;;;;;;;;;;;;5033600;28;25075;-78
2022/03/21 12:50:41;;;;;;;;;;;;;;;;;;5034599;28;20048;-76
2022/03/21 12:53:09;;;;;;;;;;;;;;;;;;5017493;28;20438;-78
2022/03/21 12:55:42;;;;;;;;;;;;;;;;;;5034921;28;19999;-75
2022/03/21 12:58:09;;;;;;;;;;;;;;;;;;5017123;28;20006;-78
2022/03/21 13:00:38;;;;;;;;;;;;;;;;;;5032699;28;19992;-78
2022/03/21 13:03:05;;;;;;;;;;;;;;;;;;5016560;28;20041;-78
2022/03/21 13:11:07;;;;;;;;;;;;;;;;;;5032938;28;20010;-80
2022/03/21 13:13:35;;;;;;;;;;;;;;;;;;5016797;28;20452;-81
2022/03/21 13:16:04;;;;;;;;;;;;;;;;;;5016553;28;19999;-77
2022/03/21 13:18:31;;;;;;;;;;;;;;;;;;5034663;28;20029;-78
2022/03/21 13:20:59;;;;;;;;;;;;;;;;;;5034684;28;20010;-76
2022/03/21 13:23:26;;;;;;;;;;;;;;;;;;5016688;28;19921;-78
2022/03/21 13:25:54;;;;;;;;;;;;;;;;;;5032886;28;20097;-76
2022/03/21 13:28:24;;;;;;;;;;;;;;;;;;5023689;28;20079;-78
2022/03/21 13:30:52;;;;;;;;;;;;;;;;;;5014163;28;20023;-78
2022/03/21 13:33:28;;;;;;;;;;;;;;;;;;5016307;28;19943;-78
2022/03/21 13:35:58;;;;;;;;;;;;;;;;;;5010106;28;20024;-78
2022/03/21 13:38:25;;;;;;;;;;;;;;;;;;5026086;28;19951;-76
2022/03/21 13:40:53;;;;;;;;;;;;;;;;;;5028933;28;19921;-75
2022/03/21 13:43:28;;;;;;;;;;;;;;;;;;5029674;28;20011;-77
2022/03/21 13:45:56;;;;;;;;;;;;;;;;;;5011414;28;19999;-77
2022/03/21 13:48:25;;;;;;;;;;;;;;;;;;5027347;28;20079;-77
2022/03/21 13:50:53;;;;;;;;;;;;;;;;;;5029117;28;19968;-76
2022/03/21 13:53:23;;;;;;;;;;;;;;;;;;4997342;28;19996;-76
2022/03/21 13:55:53;;;;;;;;;;;;;;;;;;5026577;28;19921;-75
2022/03/21 13:58:21;;;;;;;;;;;;;;;;;;5015028;28;20030;-76
2022/03/21 14:00:59;;;;;;;;;;;;;;;;;;5026113;28;25110;-82
2022/03/21 14:03:27;;;;;;;;;;;;;;;;;;5008727;28;20233;-83
2022/03/21 14:05:56;;;;;;;;;;;;;;;;;;5006153;28;22629;-76
2022/03/21 14:08:23;;;;;;;;;;;;;;;;;;5029868;28;19995;-76
2022/03/21 14:10:51;;;;;;;;;;;;;;;;;;5013413;28;20015;-80
2022/03/21 14:13:23;;;;;;;;;;;;;;;;;;5025829;28;19992;-81
2022/03/21 14:15:50;;;;;;;;;;;;;;;;;;5025676;28;19921;-77
2022/03/21 14:18:20;;;;;;;;;;;;;;;;;;5029705;28;20011;-83
2022/03/21 14:20:48;;;;;;;;;;;;;;;;;;5031403;28;20035;-75
2022/03/21 14:23:19;;;;;;;;;;;;;;;;;;5012478;28;25104;-83
2022/03/21 14:28:34;;;;;;;;;;;;;;;;;;5028923;28;20027;-74
2022/03/21 14:31:26;;;;;;;;;;;;;;;;;;5024420;28;20503;-75
2022/03/21 14:33:55;;;;;;;;;;;;;;;;;;5031912;28;20348;-79
2022/03/21 14:36:25;;;;;;;;;;;;;;;;;;4995449;28;19937;-76
2022/03/21 14:38:52;;;;;;;;;;;;;;;;;;5030907;28;20093;-79
2022/03/21 14:41:21;;;;;;;;;;;;;;;;;;5030995;28;20000;-76
2022/03/21 14:43:52;;;;;;;;;;;;;;;;;;5028575;28;20014;-81
2022/03/21 14:46:20;;;;;;;;;;;;;;;;;;5032696;28;20015;-79
2022/03/21 14:48:48;;;;;;;;;;;;;;;;;;5033274;28;19925;-76
2022/03/21 14:51:16;;;;;;;;;;;;;;;;;;5033045;28;20388;-81
2022/03/21 14:53:47;;;;;;;;;;;;;;;;;;5033758;28;19956;-75
2022/03/21 14:56:15;;;;;;;;;;;;;;;;;;5016184;28;19932;-76
2022/03/21 14:58:45;;;;;;;;;;;;;;;;;;5033438;28;20024;-81
2022/03/21 15:01:15;;;;;;;;;;;;;;;;;;5032759;28;20036;-81
2022/03/21 15:03:47;;;;;;;;;;;;;;;;;;5021708;28;20420;-79
2022/03/21 15:06:17;;;;;;;;;;;;;;;;;;5030178;28;20000;-79
2022/03/21 15:08:44;;;;;;;;;;;;;;;;;;5032139;28;20017;-76
2022/03/21 15:11:12;;;;;;;;;;;;;;;;;;4998461;28;20010;-75
2022/03/21 15:13:40;;;;;;;;;;;;;;;;;;5029275;28;26152;-76
2022/03/21 15:16:09;;;;;;;;;;;;;;;;;;5033275;28;19963;-81
2022/03/21 15:18:37;;;;;;;;;;;;;;;;;;4997186;28;21830;-76
2022/03/21 15:21:04;;;;;;;;;;;;;;;;;;5015474;28;19953;-82
2022/03/21 15:23:35;;;;;;;;;;;;;;;;;;5032899;28;20023;-76
2022/03/21 15:26:05;;;;;;;;;;;;;;;;;;5032385;28;19928;-75
2022/03/21 15:28:33;;;;;;;;;;;;;;;;;;5031896;28;19925;-82
2022/03/21 15:31:02;;;;;;;;;;;;;;;;;;5014914;28;20328;-79
2022/03/21 15:33:31;;;;;;;;;;;;;;;;;;4998873;28;19935;-76
2022/03/21 15:41:40;;;;;;;;;;;;;;;;;;5014745;28;20023;-75
2022/03/21 15:41:41;;;;;;;;;;;;;;;;;;5030610;28;20365;-75
2022/03/21 15:44:11;;;;;;;;;;;;;;;;;;5033064;28;19921;-80
2022/03/21 15:46:38;;;;;;;;;;;;;;;;;;5027047;28;20020;-83
2022/03/21 15:49:08;;;;;;;;;;;;;;;;;;5027398;28;20033;-76
2022/03/21 15:51:36;;;;;;;;;;;;;;;;;;5027372;28;20142;-79
2022/03/21 15:54:05;;;;;;;0.00;0.00;;;;;;;;;;5030042;28;20278;-73
2022/03/21 15:56:38;;;;;;;7.00;0.60;;;;;;;;;;5016145;28;20903;-76
2022/03/21 15:59:05;;;;;;;;;;;;;;;;;;5036298;28;20480;-73
2022/03/21 16:01:35;;;;;;;;;;;;;;;;;;5034505;28;23947;-77
2022/03/21 16:04:03;;;;;;;;;;;;;;;;;;5018401;28;19921;-83
2022/03/21 16:06:31;;;;;;;;;;;;;;;;;;5018154;28;19921;-74
2022/03/21 16:09:01;;;;;;;;;;;;;;;;;;5018196;28;19921;-80
2022/03/21 16:11:30;;;;;;;;;;;;;;;;;;5035693;28;20471;-77
2022/03/21 16:14:00;;;;;;;;;;;;;;;;;;5031854;28;20001;-75
2022/03/21 16:16:27;;;;;;;;;;;;;;;;;;5002184;28;19991;-76
2022/03/21 16:18:58;;;;;;;;;;;;;;;;;;5032680;28;20428;-81
2022/03/21 16:21:31;;;;;;;;;;;;;;;;;;5033401;28;20020;-76
2022/03/21 16:23:58;;;;;;;;;;;;;;;;;;5035682;28;19920;-79
2022/03/21 16:26:26;;;;;;;;;;;;;;;;;;5017321;28;20032;-81
2022/03/21 16:28:53;;;;;;;;;;;;;;;;;;5035526;28;20635;-77
2022/03/21 16:31:21;;;;;;;;;;;;;;;;;;5035405;28;19998;-74
2022/03/21 16:33:50;;;;;;;;;;;;;;;;;;5035710;28;20507;-77
2022/03/21 16:36:18;;;;;;;;;;;;;;;;;;5035226;28;20116;-78
2022/03/21 16:38:53;;;;;;;;;;;;;;;;;;5017367;28;20029;-76
2022/03/21 16:41:40;;;;;;;;;;;;;;;;;;5003937;28;19992;-77
2022/03/21 16:44:08;;;;;;;;;;;;;;;;;;5031478;28;20066;-82
2022/03/21 16:46:36;;;;;;;;;;;;;;;;;;5032201;28;19921;-78
2022/03/21 16:49:05;;;;;;;;;;;;;;;;;;5034817;28;20032;-81
2022/03/21 16:51:35;;;;;;;;;;;;;;;;;;5024152;28;19979;-82
2022/03/21 16:54:03;;;;;;;;;;;;;;;;;;5012939;28;19925;-77
2022/03/21 16:56:34;;;;;;;;;;;;;;;;;;5035163;28;20000;-79
2022/03/21 16:59:06;;;;;;;;;;;;;;;;;;5034555;28;20025;-79
2022/03/21 17:01:34;;;;;;;;;;;;;;;;;;5017695;28;19996;-77
2022/03/21 17:04:03;;;;;;;;;;;;;;;;;;5035317;28;20481;-82
2022/03/21 17:06:33;;;;;;;;;;;;;;;;;;5035557;28;20383;-77
2022/03/21 17:09:01;;;;;;;;;;;;;;;;;;5034829;28;19920;-83
2022/03/21 17:11:31;;;;;;;;;;;;;;;;;;5035369;28;20038;-75
2022/03/21 17:14:00;;;;;;;;;;;;;;;;;;5034355;28;19925;-79
2022/03/21 17:16:32;;;;;;;;;;;;;;;;;;5032990;28;19948;-80
2022/03/21 17:24:37;;;;;;;;;;;;;;;;;;5031639;28;20014;-78
2022/03/21 17:27:05;;;;;;;;;;;;;;;;;;5032846;28;19994;-78
2022/03/21 17:29:34;;;;;;;;;;;;;;;;;;5024129;28;20050;-78
2022/03/21 17:32:04;;;;;;;;;;;;;;;;;;5013671;28;20032;-77
2022/03/21 17:34:52;;;;;;;;;;;;;;;;;;5015176;28;20116;-76